Domov               UVHVVR             MKGP            O straneh              
ZDRAVSTVENO VARSTVO RASTLIN
  MREŽA AGROMET. POSTAJ
 ► PROGNOSTIČNA OBVESTILA
AGROMETEOROLOŠKI PODATKI -
ARSO
OBVLADOVANJE TVEGANJ ZARADI
NEUGODNIH VREMENSKIH RAZMER
  ► NARAVNE NESREČE
  ► SUŠA/MOČA
  ► NAMAKANJE
  ► ŽLED (gozdarstvo)
KARTOGRAFSKI PRIKAZI
SPLETNE POVEZAVE
PROJEKTI IN PUBLIKACIJE

AGROMETEOROLOŠKA MREŽA: VREMENSKE POSTAJE IN FENOLOŠKA OPAZOVANJA

Pregled podatkov za lokacijo Senožeti, meteorološka postaja 37929

Pregled senzorjev na lokaciji

ID Ime Zadnja
vrednost
Datum
zadnje
spremembe
Tip
senzorja
1791 Omočenost lista (U) 0 U 17.8.2017 18:30 A730WET
1792 Temperatura 2 m ( °C) 29,08 °C 17.8.2017 18:30 50YA
1793 Relativna vlaga 2 m (% RH) 50,21 % RH 17.8.2017 18:30 50YA
1794 Padavine 0.2 mm (mm) 0 mm 17.8.2017 18:30 Rain-O-Matic

Pregled podatkov zadnjih 24 ur

Zap.
št.
Datum in čas Senožeti
Omočenost
lista
Padavine
0.2
mm
Relativna
vlaga
2
m
Temperatura
2
m
0 17.8.2017 17:30 0 0 50,21 29,08
1 17.8.2017 17:00 0 0 40,63 31,82
2 17.8.2017 16:30 0 0 34,48 32,31
3 17.8.2017 16:00 0 0 31,67 32,63
4 17.8.2017 15:30 0 0 32,09 32,67
5 17.8.2017 15:00 0 0 32,7 32,7
6 17.8.2017 14:30 0 0 34,04 32,72
7 17.8.2017 14:00 0 0 34,53 32,11
8 17.8.2017 13:30 0 0 38,71 31,23
9 17.8.2017 13:00 0 0 39,54 30,72
10 17.8.2017 12:30 0 0 41,76 30,84
11 17.8.2017 12:00 0 0 43,88 30,5
12 17.8.2017 11:30 0 0 45,81 29,45
13 17.8.2017 11:00 0 0 45,91 29,62
14 17.8.2017 10:30 0 0 47,74 29,21
15 17.8.2017 10:00 0 0 49,65 28,4
16 17.8.2017 09:30 0 0 54,26 26,94
17 17.8.2017 09:00 0 0 59,76 25,05
18 17.8.2017 08:30 1 0 66,2 23,25
19 17.8.2017 08:00 10 0 72,87 21,34
20 17.8.2017 07:30 10 0 76,9 20,12
21 17.8.2017 07:00 10 0 92,11 17,36
22 17.8.2017 06:30 10 0 99,93 15,56
23 17.8.2017 06:00 10 0 99,93 13,89
24 17.8.2017 05:30 10 0 99,93 13,43
25 17.8.2017 05:00 10 0 99,93 13,53
26 17.8.2017 04:30 10 0 99,93 13,63
27 17.8.2017 04:00 10 0 99,93 13,82
28 17.8.2017 03:30 10 0 99,93 14,11
29 17.8.2017 03:00 10 0 99,93 14,24
30 17.8.2017 02:30 10 0 99,93 14,73
31 17.8.2017 02:00 10 0 99,93 14,77
32 17.8.2017 01:30 10 0 99,93 15,31
33 17.8.2017 01:00 10 0 99,76 15,63
34 17.8.2017 00:30 6 0 97,02 15,7
35 17.8.2017 00:00 2 0 95,31 16,02
36 16.8.2017 23:30 1 0 93,7 16,68
37 16.8.2017 23:00 0 0 91,48 17,41
38 16.8.2017 22:30 0 0 91,14 17,53
39 16.8.2017 22:00 0 0 89,91 17,97
40 16.8.2017 21:30 0 0 86,2 18,93
41 16.8.2017 21:00 0 0 82,37 19,63
42 16.8.2017 20:30 0 0 78,63 20,76
43 16.8.2017 20:00 2 0 73,94 21,66
44 16.8.2017 19:30 0 0 67,99 22,64
© 2011 Ministrstvo za kmetijstvo, gozdarstvo in prehrano. Vse pravice pridržane.